Current Weather

Mors Muni - JR Washburn Field

Mors Muni - JR Washburn Field, Illinois (KC09)

Report from: Monday, August 15, 2022 8:15 PM CDT
Current time: Monday, August 15, 2022 8:43 PM CDT

Nearby weather
Weather history
Weather forecast

Temperature19.1°C (66.4°F)
Dew point18.4°C (65.1°F)
Winds Calm
Visibility10 mi. (16.1 km)
Clouds Sky clear
Altimeter30.05 in.Hg (1018 mB)
Relative humidity96 %
Density altitude622 ft. (190 m)
Remarks Fully automated report
Automated weather observing station with precipitation discriminator
Flight conditions Visual Meteorological Conditions
Raw dataKC09 160115Z AUTO 00000KT 10SM CLR 19/18 A3005 RMK AO2 T01910184
An error has occurred. This application may no longer respond until reloaded. Reload 🗙